Time;durP1;ratioP1;P1;durP2;ratioP2;P2;SDS_P1;SDS_P2;PMS_P1;PMS_P2;Temp;Humidity;BMP_temperature;BMP_pressure;BME280_temperature;BME280_humidity;BME280_pressure;Samples;Min_cycle;Max_cycle;Signal;HPM_P1;HPM_P2
2023/09/08 00:02:04;;;;;;;3.92;3.63;;;22.50;95.00;;;;;;4936289;29;20252;-68
2023/09/08 00:04:30;;;;;;;4.07;3.78;;;22.50;95.10;;;;;;4933351;28;20267;-69
2023/09/08 00:06:56;;;;;;;3.92;3.63;;;22.50;95.10;;;;;;4948397;28;20185;-68
2023/09/08 00:09:22;;;;;;;3.60;3.40;;;22.50;95.00;;;;;;4978520;28;20202;-68
2023/09/08 00:11:47;;;;;;;4.07;3.78;;;22.40;95.00;;;;;;4946596;28;20209;-68
2023/09/08 00:14:13;;;;;;;4.07;3.75;;;22.50;95.00;;;;;;4953732;28;20192;-68
2023/09/08 00:16:42;;;;;;;3.72;3.47;;;22.50;95.40;;;;;;4983854;28;20213;-68
2023/09/08 00:19:09;;;;;;;4.28;3.97;;;22.50;95.00;;;;;;4973311;28;20181;-68
2023/09/08 00:21:37;;;;;;;4.18;3.88;;;22.50;95.00;;;;;;4943841;28;20219;-68
2023/09/08 00:24:04;;;;;;;3.75;3.50;;;22.40;95.00;;;;;;4950510;28;20194;-67
2023/09/08 00:26:30;;;;;;;3.80;3.50;;;22.40;95.00;;;;;;4951597;28;20188;-69
2023/09/08 00:28:56;;;;;;;4.30;3.90;;;22.40;95.00;;;;;;4969389;28;20189;-68
2023/09/08 00:31:22;;;;;;;4.03;3.72;;;22.40;95.00;;;;;;4960633;28;20225;-68
2023/09/08 00:33:48;;;;;;;4.05;3.75;;;22.50;95.00;;;;;;4954042;28;20215;-68
2023/09/08 00:36:15;;;;;;;4.07;3.78;;;22.40;94.90;;;;;;4994730;28;20211;-68
2023/09/08 00:38:41;;;;;;;4.10;3.80;;;22.40;94.90;;;;;;4965977;28;20181;-68
2023/09/08 00:41:07;;;;;;;4.43;3.95;;;22.40;94.90;;;;;;4956658;28;20189;-68
2023/09/08 00:43:33;;;;;;;4.63;4.32;;;22.40;94.90;;;;;;4949703;28;20190;-68
2023/09/08 00:46:02;;;;;;;4.28;3.97;;;22.50;94.90;;;;;;4988960;28;20197;-68
2023/09/08 00:48:29;;;;;;;3.90;3.60;;;22.40;94.80;;;;;;4969224;28;20268;-69
2023/09/08 00:50:56;;;;;;;3.80;3.53;;;22.40;94.90;;;;;;4977160;28;20192;-68
2023/09/08 00:53:23;;;;;;;4.18;3.88;;;22.40;94.90;;;;;;4976651;28;20262;-68
2023/09/08 00:55:50;;;;;;;3.90;3.60;;;22.40;94.90;;;;;;4944130;28;20240;-68
2023/09/08 00:58:16;;;;;;;4.25;3.85;;;22.40;94.80;;;;;;4949608;28;20248;-68
2023/09/08 01:00:42;;;;;;;4.32;3.92;;;22.40;94.80;;;;;;4965830;28;20231;-68
2023/09/08 01:03:07;;;;;;;4.00;3.70;;;22.40;94.80;;;;;;4963963;28;20185;-68
2023/09/08 01:05:33;;;;;;;4.35;4.05;;;22.40;94.80;;;;;;4950597;28;20264;-68
2023/09/08 01:08:00;;;;;;;3.75;3.42;;;22.40;94.80;;;;;;4986058;28;20204;-68
2023/09/08 01:10:27;;;;;;;3.85;3.60;;;22.40;94.80;;;;;;4943805;28;20205;-68
2023/09/08 01:12:53;;;;;;;4.18;3.88;;;22.40;94.80;;;;;;4949529;28;20209;-68
2023/09/08 01:15:19;;;;;;;3.83;3.53;;;22.40;94.80;;;;;;4941149;28;20208;-70
2023/09/08 01:17:44;;;;;;;3.88;3.58;;;22.40;94.80;;;;;;4957399;28;20181;-67
2023/09/08 01:20:27;;;;;;;3.85;3.55;;;22.40;94.80;;;;;;4957389;28;20221;-68
2023/09/08 01:23:16;;;;;;;3.58;3.28;;;22.40;94.80;;;;;;4955000;28;20200;-68
2023/09/08 01:25:59;;;;;;;3.85;3.55;;;22.40;94.80;;;;;;4965151;28;20320;-68
2023/09/08 01:28:26;;;;;;;3.85;3.55;;;22.40;94.80;;;;;;4965171;28;20186;-68
2023/09/08 01:30:54;;;;;;;3.50;3.30;;;22.40;94.80;;;;;;4957278;28;20208;-68
2023/09/08 01:33:23;;;;;;;4.18;3.80;;;22.40;95.10;;;;;;4965422;28;20219;-68
2023/09/08 01:35:49;;;;;;;3.58;3.30;;;22.40;94.70;;;;;;4981781;28;20209;-68
2023/09/08 01:38:16;;;;;;;3.67;3.38;;;22.40;94.70;;;;;;4941204;28;20193;-68
2023/09/08 01:40:41;;;;;;;3.60;3.40;;;22.40;94.70;;;;;;4974044;28;20194;-68
2023/09/08 01:43:07;;;;;;;3.70;3.40;;;22.40;94.70;;;;;;4941172;28;20186;-68
2023/09/08 01:45:33;;;;;;;3.70;3.40;;;22.40;94.70;;;;;;4965096;28;20205;-68
2023/09/08 01:47:59;;;;;;;3.75;3.45;;;22.40;94.70;;;;;;4956569;28;20185;-69
2023/09/08 01:50:25;;;;;;;4.22;3.92;;;22.40;94.70;;;;;;4940897;28;20182;-69
2023/09/08 01:52:51;;;;;;;3.80;3.50;;;22.40;94.70;;;;;;4949201;28;20224;-69
2023/09/08 01:55:17;;;;;;;3.78;3.50;;;22.40;94.70;;;;;;4940734;28;20225;-69
2023/09/08 01:57:44;;;;;;;4.07;3.78;;;22.40;94.60;;;;;;4963993;28;20189;-68
2023/09/08 02:00:11;;;;;;;4.18;3.45;;;22.40;94.70;;;;;;4956326;28;20194;-68
2023/09/08 02:02:40;;;;;;;4.10;3.80;;;22.40;94.60;;;;;;4964553;28;20267;-68
2023/09/08 02:05:07;;;;;;;4.00;3.70;;;22.40;94.60;;;;;;4954662;28;20208;-68
2023/09/08 02:07:33;;;;;;;3.88;3.58;;;22.40;94.50;;;;;;4957814;28;20190;-68
2023/09/08 02:09:59;;;;;;;4.20;3.80;;;22.40;94.60;;;;;;4945978;28;20192;-68
2023/09/08 02:12:25;;;;;;;3.60;3.30;;;22.30;94.50;;;;;;4943346;28;20740;-69
2023/09/08 02:14:51;;;;;;;3.92;3.63;;;22.40;94.60;;;;;;4940494;28;20675;-68
2023/09/08 02:17:17;;;;;;;4.53;3.88;;;22.40;94.60;;;;;;4956050;28;20260;-68
2023/09/08 02:19:44;;;;;;;4.15;3.85;;;22.30;94.50;;;;;;4940301;28;20189;-68
2023/09/08 02:22:10;;;;;;;3.85;3.55;;;22.40;94.50;;;;;;4935968;28;20194;-68
2023/09/08 02:24:36;;;;;;;3.42;3.13;;;22.40;94.60;;;;;;4939874;28;20205;-68
2023/09/08 02:27:02;;;;;;;4.35;3.95;;;22.40;94.50;;;;;;4969799;28;20219;-69
2023/09/08 02:29:29;;;;;;;4.03;3.72;;;22.40;94.90;;;;;;4943253;28;20573;-68
2023/09/08 02:31:54;;;;;;;3.90;3.60;;;22.30;94.40;;;;;;4940260;28;20226;-68
2023/09/08 02:34:20;;;;;;;3.95;3.65;;;22.30;94.50;;;;;;4948128;28;20284;-68
2023/09/08 02:36:47;;;;;;;4.07;3.78;;;22.40;94.50;;;;;;4964642;28;20217;-68
2023/09/08 02:39:14;;;;;;;3.80;3.50;;;22.30;94.40;;;;;;4940956;28;20244;-68
2023/09/08 02:41:40;;;;;;;3.63;3.33;;;22.30;94.40;;;;;;4956215;28;20190;-68
2023/09/08 02:44:05;;;;;;;4.40;4.03;;;22.30;94.40;;;;;;4940299;28;20591;-69
2023/09/08 02:46:32;;;;;;;3.72;3.42;;;22.30;94.40;;;;;;4956832;28;20194;-68
2023/09/08 02:48:58;;;;;;;3.78;3.47;;;22.30;94.40;;;;;;4940408;28;20594;-68
2023/09/08 02:51:24;;;;;;;3.90;3.60;;;22.30;94.40;;;;;;4981728;28;20271;-68
2023/09/08 02:53:50;;;;;;;4.05;3.75;;;22.30;94.40;;;;;;4943723;28;20190;-68
2023/09/08 02:56:15;;;;;;;3.88;3.58;;;22.30;94.30;;;;;;4955935;28;20255;-68
2023/09/08 02:58:41;;;;;;;3.88;3.58;;;22.30;94.30;;;;;;4954838;28;20185;-68
2023/09/08 03:01:14;;;;;;;3.83;3.53;;;22.30;94.30;;;;;;4948531;28;20253;-68
2023/09/08 03:03:43;;;;;;;3.80;3.50;;;22.30;94.30;;;;;;4939947;28;20194;-68
2023/09/08 03:06:11;;;;;;;4.18;3.88;;;22.30;94.30;;;;;;4940674;28;20207;-68
2023/09/08 03:08:39;;;;;;;4.20;3.80;;;22.30;94.20;;;;;;4955731;28;20188;-68
2023/09/08 03:11:05;;;;;;;3.50;3.25;;;22.30;94.30;;;;;;4956472;28;20185;-68
2023/09/08 03:13:34;;;;;;;3.50;3.30;;;22.30;94.30;;;;;;4936630;28;20190;-67
2023/09/08 03:16:08;;;;;;;3.78;3.47;;;22.30;94.30;;;;;;4933695;28;20597;-68
2023/09/08 03:18:36;;;;;;;4.07;3.78;;;22.30;94.20;;;;;;4949003;28;20198;-68
2023/09/08 03:21:08;;;;;;;4.03;3.63;;;22.30;94.20;;;;;;4953403;28;20273;-68
2023/09/08 03:23:39;;;;;;;3.90;3.60;;;22.30;94.20;;;;;;4958914;28;20185;-67
2023/09/08 03:26:07;;;;;;;3.90;3.60;;;22.30;94.20;;;;;;4965614;28;20202;-68
2023/09/08 03:28:34;;;;;;;3.80;3.50;;;22.30;94.20;;;;;;4975436;28;20241;-68
2023/09/08 03:31:04;;;;;;;4.32;4.03;;;22.30;94.20;;;;;;4952536;28;20190;-68
2023/09/08 03:33:32;;;;;;;3.80;3.50;;;22.30;94.20;;;;;;4943563;28;20196;-68
2023/09/08 03:35:59;;;;;;;3.90;3.60;;;22.30;94.10;;;;;;4959374;28;20759;-68
2023/09/08 03:38:25;;;;;;;3.90;3.50;;;22.30;94.10;;;;;;4951486;28;20181;-68
2023/09/08 03:40:52;;;;;;;3.75;3.50;;;22.20;94.00;;;;;;4947984;29;20182;-68
2023/09/08 03:43:18;;;;;;;3.72;3.42;;;22.30;94.10;;;;;;4944655;29;20265;-68
2023/09/08 03:45:44;;;;;;;3.83;3.53;;;22.30;94.10;;;;;;4958435;28;20225;-68
2023/09/08 03:48:10;;;;;;;4.10;3.80;;;22.30;94.00;;;;;;4953459;29;20191;-68
2023/09/08 03:50:36;;;;;;;3.70;3.40;;;22.20;94.00;;;;;;4957412;28;20248;-68
2023/09/08 03:53:02;;;;;;;4.57;3.80;;;22.20;94.10;;;;;;4943294;28;20308;-68
2023/09/08 03:55:28;;;;;;;4.28;3.97;;;22.20;94.00;;;;;;4934354;28;20205;-68
2023/09/08 03:57:54;;;;;;;3.78;3.47;;;22.20;94.00;;;;;;4952110;28;20193;-68
2023/09/08 04:00:21;;;;;;;4.68;3.40;;;22.30;94.00;;;;;;4939881;29;20277;-69
2023/09/08 04:02:51;;;;;;;3.65;3.35;;;22.20;94.00;;;;;;4959094;28;20575;-69
2023/09/08 04:05:17;;;;;;;4.07;3.78;;;22.20;94.00;;;;;;4958810;28;20209;-68
2023/09/08 04:07:47;;;;;;;4.30;4.00;;;22.20;93.90;;;;;;4942735;28;20678;-68
2023/09/08 04:10:13;;;;;;;3.75;3.42;;;22.20;93.90;;;;;;4948104;28;20656;-69
2023/09/08 04:12:40;;;;;;;4.28;3.90;;;22.20;93.90;;;;;;4958548;28;20237;-68
2023/09/08 04:15:08;;;;;;;3.88;3.58;;;22.30;93.90;;;;;;4964542;28;20205;-68
2023/09/08 04:17:35;;;;;;;3.90;3.60;;;22.20;93.90;;;;;;4941565;28;20193;-68
2023/09/08 04:20:06;;;;;;;4.63;4.22;;;22.20;93.90;;;;;;4939424;29;20191;-68
2023/09/08 04:22:33;;;;;;;3.78;3.50;;;22.20;93.90;;;;;;4943588;28;20706;-68
2023/09/08 04:25:00;;;;;;;3.80;3.50;;;22.20;93.90;;;;;;4958278;28;20201;-68
2023/09/08 04:27:27;;;;;;;3.88;3.67;;;22.20;93.80;;;;;;4952096;29;20202;-68
2023/09/08 04:29:53;;;;;;;3.95;3.65;;;22.20;93.80;;;;;;4934000;28;20190;-68
2023/09/08 04:32:19;;;;;;;4.35;4.03;;;22.20;93.80;;;;;;4941218;28;20206;-68
2023/09/08 04:34:45;;;;;;;4.00;3.53;;;22.20;93.80;;;;;;4955295;28;20209;-68
2023/09/08 04:37:10;;;;;;;4.35;4.03;;;22.20;93.80;;;;;;4944898;28;20193;-68
2023/09/08 04:39:39;;;;;;;4.00;3.70;;;22.20;93.80;;;;;;4941194;28;20190;-68
2023/09/08 04:42:06;;;;;;;3.75;3.45;;;22.20;93.70;;;;;;4951737;28;20268;-68
2023/09/08 04:44:33;;;;;;;3.58;3.38;;;22.20;93.70;;;;;;4957251;28;20231;-66
2023/09/08 04:46:59;;;;;;;4.10;3.80;;;22.20;93.70;;;;;;4949762;28;20190;-68
2023/09/08 04:49:25;;;;;;;3.95;3.65;;;22.20;93.80;;;;;;4944629;28;20205;-68
2023/09/08 04:51:51;;;;;;;4.28;3.75;;;22.20;93.70;;;;;;4954772;28;20218;-68
2023/09/08 04:54:19;;;;;;;4.45;4.05;;;22.20;93.70;;;;;;4944884;29;20658;-68
2023/09/08 04:56:46;;;;;;;4.65;4.18;;;22.20;93.70;;;;;;4956669;28;20216;-68
2023/09/08 04:59:13;;;;;;;4.28;3.97;;;22.20;93.70;;;;;;4940559;29;20209;-68
2023/09/08 05:01:39;;;;;;;3.35;3.15;;;22.20;93.70;;;;;;4957329;28;20190;-68
2023/09/08 05:04:07;;;;;;;4.40;4.00;;;22.20;93.70;;;;;;4933392;28;20649;-68
2023/09/08 05:06:32;;;;;;;3.85;3.55;;;22.20;93.70;;;;;;4949214;28;20192;-68
2023/09/08 05:09:00;;;;;;;3.92;3.63;;;22.20;93.70;;;;;;4957246;28;20186;-68
2023/09/08 05:11:27;;;;;;;3.90;3.60;;;22.20;94.00;;;;;;4950236;28;20219;-68
2023/09/08 05:13:53;;;;;;;3.95;3.65;;;22.20;93.70;;;;;;4948889;28;20190;-68
2023/09/08 05:16:25;;;;;;;4.18;3.78;;;22.20;93.70;;;;;;4948811;29;20289;-68
2023/09/08 05:18:52;;;;;;;3.85;3.55;;;22.20;93.70;;;;;;4949216;28;20177;-67
2023/09/08 05:21:18;;;;;;;4.07;3.75;;;22.20;94.00;;;;;;4949241;28;20182;-69
2023/09/08 05:23:45;;;;;;;4.20;3.80;;;22.20;93.70;;;;;;4949224;28;20192;-69
2023/09/08 05:26:11;;;;;;;3.85;3.50;;;22.10;93.60;;;;;;4937647;29;20253;-68
2023/09/08 05:28:37;;;;;;;3.60;3.30;;;22.20;93.70;;;;;;4947570;28;20198;-68
2023/09/08 05:31:04;;;;;;;4.22;3.90;;;22.10;93.60;;;;;;4949482;28;20182;-68
2023/09/08 05:33:30;;;;;;;3.88;3.58;;;22.10;93.70;;;;;;4947133;28;20245;-70
2023/09/08 05:35:57;;;;;;;3.78;3.47;;;22.20;93.70;;;;;;4932955;28;20205;-69
2023/09/08 05:38:25;;;;;;;3.78;3.47;;;22.10;93.70;;;;;;4948324;28;20265;-69
2023/09/08 05:40:51;;;;;;;3.97;3.67;;;22.10;93.60;;;;;;4964497;28;20661;-69
2023/09/08 05:43:17;;;;;;;3.85;3.55;;;22.10;93.60;;;;;;4950677;28;20205;-69
2023/09/08 05:45:42;;;;;;;4.10;3.80;;;22.10;93.50;;;;;;4951510;28;20221;-69
2023/09/08 05:48:08;;;;;;;4.07;3.78;;;22.20;93.60;;;;;;4956541;28;20277;-68
2023/09/08 05:50:34;;;;;;;3.83;3.53;;;22.20;93.50;;;;;;4940595;28;20196;-68
2023/09/08 05:53:00;;;;;;;3.47;3.28;;;22.20;93.50;;;;;;4937513;29;20207;-69
2023/09/08 05:55:26;;;;;;;4.13;3.72;;;22.20;93.50;;;;;;4952258;28;20209;-68
2023/09/08 05:57:51;;;;;;;4.05;3.75;;;22.10;93.50;;;;;;4953162;28;20190;-68
2023/09/08 06:00:17;;;;;;;3.92;3.60;;;22.20;93.50;;;;;;4941046;28;20204;-68
2023/09/08 06:02:47;;;;;;;3.67;3.38;;;22.20;93.60;;;;;;4940976;28;20200;-69
2023/09/08 06:05:15;;;;;;;3.72;3.42;;;22.20;93.70;;;;;;4945866;28;20208;-69
2023/09/08 06:07:41;;;;;;;3.97;3.67;;;22.10;93.60;;;;;;4950528;28;20239;-68
2023/09/08 06:10:09;;;;;;;4.22;3.85;;;22.20;93.70;;;;;;4958588;28;20251;-67
2023/09/08 06:12:35;;;;;;;4.40;3.88;;;22.20;93.70;;;;;;4928675;28;20233;-68
2023/09/08 06:15:05;;;;;;;3.90;3.60;;;22.20;93.70;;;;;;4956571;28;20676;-68
2023/09/08 06:17:32;;;;;;;4.03;3.72;;;22.20;93.70;;;;;;4969071;28;20181;-69
2023/09/08 06:19:59;;;;;;;3.70;3.40;;;22.10;93.60;;;;;;4932852;28;20261;-68
2023/09/08 06:22:25;;;;;;;4.18;3.88;;;22.10;93.40;;;;;;4954369;28;20297;-68
2023/09/08 06:24:50;;;;;;;3.90;3.60;;;22.20;93.30;;;;;;4947137;28;20221;-68
2023/09/08 06:27:17;;;;;;;4.38;3.97;;;22.10;93.30;;;;;;4926474;28;20189;-68
2023/09/08 06:29:43;;;;;;;4.13;3.72;;;22.20;93.30;;;;;;4938125;28;20233;-68
2023/09/08 06:32:11;;;;;;;3.80;3.50;;;22.10;93.30;;;;;;4954126;28;20209;-67
2023/09/08 06:34:39;;;;;;;3.90;3.60;;;22.20;93.30;;;;;;4947133;28;20239;-67
2023/09/08 06:37:05;;;;;;;4.00;3.70;;;22.10;93.20;;;;;;4956074;28;20213;-67
2023/09/08 06:39:32;;;;;;;3.80;3.50;;;22.20;93.30;;;;;;4961735;28;20230;-67
2023/09/08 06:41:59;;;;;;;4.18;3.88;;;22.20;93.20;;;;;;4950310;28;20661;-68
2023/09/08 06:44:25;;;;;;;3.95;3.65;;;22.10;93.10;;;;;;4944608;28;20218;-67
2023/09/08 06:46:51;;;;;;;3.83;3.53;;;22.20;93.10;;;;;;4936565;28;20190;-68
2023/09/08 06:49:17;;;;;;;4.15;3.83;;;22.20;93.10;;;;;;4956144;28;20182;-67
2023/09/08 06:51:43;;;;;;;4.00;3.60;;;22.10;93.40;;;;;;4949227;28;20227;-68
2023/09/08 06:54:09;;;;;;;4.25;3.85;;;22.20;93.10;;;;;;4939079;28;20185;-68
2023/09/08 06:56:38;;;;;;;4.13;3.83;;;22.20;93.10;;;;;;4948362;28;20186;-67
2023/09/08 06:59:06;;;;;;;4.50;3.90;;;22.20;93.10;;;;;;4943856;28;20208;-67
2023/09/08 07:01:32;;;;;;;3.97;3.67;;;22.20;93.10;;;;;;4943843;28;20210;-67
2023/09/08 07:03:58;;;;;;;4.60;4.07;;;22.20;93.10;;;;;;4955464;28;20198;-67
2023/09/08 07:06:24;;;;;;;4.03;3.72;;;22.20;93.10;;;;;;4959508;28;20216;-67
2023/09/08 07:08:51;;;;;;;3.85;3.50;;;22.20;93.10;;;;;;4949772;28;20283;-67
2023/09/08 07:11:17;;;;;;;3.97;3.67;;;22.20;93.10;;;;;;4951379;28;20223;-68
2023/09/08 07:13:43;;;;;;;3.95;3.65;;;22.20;93.10;;;;;;4957826;28;20225;-68
2023/09/08 07:16:10;;;;;;;5.25;4.15;;;22.20;93.20;;;;;;4943478;28;20612;-69
2023/09/08 07:18:37;;;;;;;4.28;3.88;;;22.20;93.20;;;;;;4943744;29;20183;-68
2023/09/08 07:21:04;;;;;;;4.50;4.10;;;22.20;93.20;;;;;;4949702;28;20190;-68
2023/09/08 07:23:30;;;;;;;4.07;3.78;;;22.20;93.20;;;;;;4944586;29;20244;-70
2023/09/08 07:25:56;;;;;;;4.05;3.75;;;22.20;93.20;;;;;;4956911;28;20276;-68
2023/09/08 07:28:26;;;;;;;4.50;4.18;;;22.20;93.20;;;;;;4946771;28;20636;-67
2023/09/08 07:30:53;;;;;;;3.58;3.28;;;22.20;93.20;;;;;;4942284;28;20256;-67
2023/09/08 07:33:19;;;;;;;4.85;4.45;;;22.20;93.20;;;;;;4952949;28;20205;-68
2023/09/08 07:35:45;;;;;;;4.45;4.10;;;22.20;93.20;;;;;;4943251;28;20253;-68
2023/09/08 07:38:11;;;;;;;4.03;3.72;;;22.20;93.20;;;;;;4946226;28;20651;-68
2023/09/08 07:40:37;;;;;;;4.78;4.38;;;22.20;93.20;;;;;;4937936;29;20237;-68
2023/09/08 07:43:03;;;;;;;4.72;4.32;;;22.20;93.20;;;;;;4966891;28;20256;-68
2023/09/08 07:45:29;;;;;;;4.47;4.07;;;22.30;93.30;;;;;;4956399;28;20214;-68
2023/09/08 07:47:54;;;;;;;4.60;4.20;;;22.30;93.30;;;;;;4978897;28;20186;-67
2023/09/08 07:50:27;;;;;;;5.20;4.10;;;22.30;93.30;;;;;;4938300;28;20201;-68
2023/09/08 07:52:56;;;;;;;5.13;4.70;;;22.30;93.30;;;;;;4950267;28;20241;-68
2023/09/08 07:55:26;;;;;;;4.85;4.45;;;22.30;93.30;;;;;;4939213;29;20310;-68
2023/09/08 07:57:53;;;;;;;4.50;4.10;;;22.30;93.20;;;;;;4942693;28;20197;-68
2023/09/08 08:00:19;;;;;;;5.15;4.75;;;22.30;93.20;;;;;;4964404;28;20228;-69
2023/09/08 08:02:53;;;;;;;4.22;3.85;;;22.30;93.30;;;;;;4939640;28;20262;-68
2023/09/08 08:05:18;;;;;;;4.68;4.28;;;22.40;93.40;;;;;;4957787;28;20773;-68
2023/09/08 08:07:44;;;;;;;4.63;4.22;;;22.40;93.40;;;;;;4958545;28;20284;-68
2023/09/08 08:10:12;;;;;;;4.68;4.20;;;22.40;93.50;;;;;;4980794;28;20193;-68
2023/09/08 08:12:39;;;;;;;4.53;4.13;;;22.40;93.40;;;;;;4942646;28;20241;-68
2023/09/08 08:15:06;;;;;;;4.45;4.15;;;22.40;93.50;;;;;;4965866;28;20217;-68
2023/09/08 08:17:32;;;;;;;4.57;4.18;;;22.40;93.50;;;;;;4958602;28;20194;-68
2023/09/08 08:19:59;;;;;;;4.05;3.70;;;22.40;93.40;;;;;;4958352;28;20194;-68
2023/09/08 08:22:27;;;;;;;4.63;4.18;;;22.50;93.50;;;;;;4942411;28;20209;-68
2023/09/08 08:24:53;;;;;;;4.10;3.78;;;22.40;93.50;;;;;;4947010;28;20218;-68
2023/09/08 08:27:19;;;;;;;4.72;4.32;;;22.50;93.50;;;;;;4965223;28;20248;-68
2023/09/08 08:29:44;;;;;;;4.47;4.07;;;22.50;93.50;;;;;;4983460;28;20189;-68
2023/09/08 08:32:12;;;;;;;4.50;4.18;;;22.50;93.60;;;;;;4950238;28;20612;-68
2023/09/08 08:34:38;;;;;;;4.65;4.25;;;22.50;93.60;;;;;;4957840;28;20743;-68
2023/09/08 08:37:04;;;;;;;4.57;4.18;;;22.50;93.60;;;;;;4958629;28;20208;-69
2023/09/08 08:39:29;;;;;;;4.70;4.30;;;22.50;93.80;;;;;;4958166;28;20185;-67
2023/09/08 08:41:55;;;;;;;5.13;3.83;;;22.50;93.80;;;;;;4958028;28;20560;-68
2023/09/08 08:44:22;;;;;;;4.53;4.20;;;22.50;93.80;;;;;;4941878;28;20248;-68
2023/09/08 08:46:49;;;;;;;4.60;4.25;;;22.50;93.80;;;;;;4965757;28;20190;-68
2023/09/08 08:49:16;;;;;;;4.97;4.57;;;22.50;93.90;;;;;;4975100;28;20221;-68
2023/09/08 08:51:45;;;;;;;4.72;4.32;;;22.50;93.90;;;;;;4957833;28;20700;-69
2023/09/08 08:54:15;;;;;;;4.63;4.22;;;22.50;93.90;;;;;;4957327;28;20186;-68
2023/09/08 08:56:42;;;;;;;4.85;4.43;;;22.50;93.90;;;;;;4958181;28;20276;-68
2023/09/08 08:59:10;;;;;;;4.30;3.90;;;22.50;93.80;;;;;;4941803;28;20209;-68
2023/09/08 09:01:37;;;;;;;4.63;4.22;;;22.50;93.90;;;;;;4973745;28;20248;-68
2023/09/08 09:04:06;;;;;;;4.72;4.30;;;22.50;94.00;;;;;;4975281;28;20221;-68
2023/09/08 09:06:32;;;;;;;5.53;4.38;;;22.50;94.00;;;;;;4963403;28;20198;-68
2023/09/08 09:08:59;;;;;;;4.68;4.32;;;22.50;94.10;;;;;;4957208;28;20204;-69
2023/09/08 09:11:25;;;;;;;4.75;4.35;;;22.50;94.20;;;;;;4962217;28;20185;-68
2023/09/08 09:13:51;;;;;;;4.43;4.03;;;22.50;94.10;;;;;;4960291;28;20192;-71
2023/09/08 09:16:17;;;;;;;4.90;4.40;;;22.50;94.10;;;;;;4938061;29;20214;-68
2023/09/08 09:19:00;;;;;;;4.80;4.28;;;22.50;94.30;;;;;;4946198;28;20193;-68
2023/09/08 09:21:48;;;;;;;5.15;4.43;;;22.50;94.20;;;;;;4946165;29;20194;-68
2023/09/08 09:24:17;;;;;;;4.70;4.30;;;22.50;94.30;;;;;;4976917;28;20243;-68
2023/09/08 09:26:43;;;;;;;4.65;4.28;;;22.50;94.40;;;;;;4945963;28;20190;-69
2023/09/08 09:29:13;;;;;;;4.32;4.00;;;22.50;94.40;;;;;;4964319;28;20215;-68
2023/09/08 09:31:53;;;;;;;4.90;4.50;;;22.60;94.50;;;;;;4965324;28;20221;-68
2023/09/08 09:34:21;;;;;;;4.45;4.10;;;22.50;94.50;;;;;;4949056;28;20243;-68
2023/09/08 09:36:52;;;;;;;4.40;4.00;;;22.60;94.50;;;;;;4964908;28;20182;-68
2023/09/08 09:39:19;;;;;;;4.45;4.05;;;22.60;94.60;;;;;;4965185;28;20280;-68
2023/09/08 09:41:47;;;;;;;5.20;4.70;;;22.60;94.80;;;;;;4971657;28;20262;-68
2023/09/08 09:44:14;;;;;;;4.53;4.13;;;22.50;94.80;;;;;;4949240;28;20742;-68
2023/09/08 09:46:45;;;;;;;4.40;4.10;;;22.60;95.10;;;;;;4957202;28;20193;-68
2023/09/08 09:49:13;;;;;;;5.20;4.70;;;22.60;94.90;;;;;;4957005;28;20193;-67
2023/09/08 09:51:44;;;;;;;4.85;4.45;;;22.60;95.10;;;;;;4964856;28;20252;-68
2023/09/08 09:54:11;;;;;;;4.47;4.07;;;22.60;95.10;;;;;;4973849;28;20276;-68
2023/09/08 09:56:39;;;;;;;4.60;4.30;;;22.60;95.10;;;;;;4962820;28;20203;-68
2023/09/08 09:59:08;;;;;;;4.90;4.50;;;22.60;95.50;;;;;;4942530;28;20225;-68
2023/09/08 10:01:37;;;;;;;4.60;4.30;;;22.60;95.30;;;;;;4945903;28;20197;-68
2023/09/08 10:04:08;;;;;;;4.82;4.50;;;22.60;95.40;;;;;;4959924;28;20671;-69
2023/09/08 10:06:36;;;;;;;4.60;4.15;;;22.60;95.20;;;;;;4985106;28;20575;-67
2023/09/08 10:09:08;;;;;;;4.82;4.43;;;22.60;95.40;;;;;;4952044;28;20196;-68
2023/09/08 10:11:42;;;;;;;4.55;4.25;;;22.60;95.40;;;;;;4988567;28;20813;-68
2023/09/08 10:14:12;;;;;;;4.90;4.50;;;22.60;95.40;;;;;;4966176;28;20192;-68
2023/09/08 10:16:41;;;;;;;5.15;4.75;;;22.60;95.50;;;;;;4970558;28;20193;-67
2023/09/08 10:19:10;;;;;;;4.65;4.32;;;22.60;95.50;;;;;;4938749;28;20190;-68
2023/09/08 10:21:45;;;;;;;4.90;4.50;;;22.60;95.60;;;;;;4965230;28;20217;-68
2023/09/08 10:24:23;;;;;;;5.05;4.65;;;22.60;95.50;;;;;;4953415;28;20687;-68
2023/09/08 10:27:11;;;;;;;4.78;4.38;;;22.70;95.70;;;;;;4964584;28;20201;-68
2023/09/08 10:29:39;;;;;;;4.95;4.45;;;22.70;96.00;;;;;;4959894;28;20577;-68
2023/09/08 10:32:09;;;;;;;4.85;4.38;;;22.60;96.10;;;;;;4979671;28;20228;-68
2023/09/08 10:34:36;;;;;;;4.43;4.13;;;22.70;95.90;;;;;;4941246;29;20206;-68
2023/09/08 10:37:05;;;;;;;5.13;4.63;;;22.70;96.00;;;;;;4968048;28;20248;-68
2023/09/08 10:39:41;;;;;;;4.95;4.60;;;22.70;95.90;;;;;;4968131;28;20196;-68
2023/09/08 10:42:16;;;;;;;5.13;4.72;;;22.70;96.00;;;;;;4960112;28;20225;-68
2023/09/08 10:44:51;;;;;;;4.95;4.55;;;22.70;95.80;;;;;;4967541;28;20268;-68
2023/09/08 10:47:30;;;;;;;5.40;4.70;;;22.70;95.80;;;;;;4951892;28;20199;-68
2023/09/08 10:49:58;;;;;;;5.30;4.85;;;22.70;95.80;;;;;;4943994;28;20193;-68
2023/09/08 10:52:25;;;;;;;5.03;4.63;;;22.70;96.10;;;;;;4984968;28;20626;-67
2023/09/08 10:54:53;;;;;;;6.25;4.60;;;22.70;96.00;;;;;;4950375;28;20205;-68
2023/09/08 10:57:23;;;;;;;5.82;5.25;;;22.70;96.10;;;;;;4946710;28;20276;-68
2023/09/08 11:00:12;;;;;;;4.70;4.30;;;22.70;96.60;;;;;;4954903;28;20637;-67
2023/09/08 11:02:50;;;;;;;4.82;4.43;;;22.70;96.30;;;;;;4959056;28;20197;-68
2023/09/08 11:05:18;;;;;;;5.50;5.10;;;22.70;96.60;;;;;;4944428;28;20739;-68
2023/09/08 11:07:45;;;;;;;5.50;5.03;;;22.70;96.40;;;;;;4940453;28;20199;-68
2023/09/08 11:10:13;;;;;;;4.85;4.45;;;22.70;96.90;;;;;;4943017;28;20226;-68
2023/09/08 11:12:38;;;;;;;4.75;4.45;;;22.70;96.40;;;;;;4970672;28;20227;-68
2023/09/08 11:15:08;;;;;;;4.70;4.40;;;22.70;96.50;;;;;;4987419;28;20295;-67
2023/09/08 11:17:41;;;;;;;5.28;4.82;;;22.70;96.70;;;;;;4989362;28;20196;-68
2023/09/08 11:20:10;;;;;;;5.25;4.75;;;22.70;96.90;;;;;;4961945;28;20186;-68
2023/09/08 11:22:40;;;;;;;5.15;4.75;;;22.70;97.30;;;;;;4967813;28;20271;-69
2023/09/08 11:25:12;;;;;;;5.15;4.70;;;22.70;97.00;;;;;;4962307;28;20633;-68
2023/09/08 11:27:39;;;;;;;5.47;4.97;;;22.70;97.20;;;;;;4954561;29;20198;-68
2023/09/08 11:30:08;;;;;;;5.55;5.05;;;22.70;97.00;;;;;;4981071;28;20651;-68
2023/09/08 11:32:35;;;;;;;6.28;4.53;;;22.70;97.20;;;;;;4963262;28;20600;-68
2023/09/08 11:35:07;;;;;;;4.97;4.45;;;22.70;97.60;;;;;;4970442;28;20201;-68
2023/09/08 11:37:39;;;;;;;5.47;5.07;;;22.70;97.10;;;;;;4970544;28;20244;-68
2023/09/08 11:40:09;;;;;;;4.82;4.43;;;22.70;97.20;;;;;;4979605;28;20240;-68
2023/09/08 11:42:35;;;;;;;5.30;4.90;;;22.80;97.60;;;;;;4966566;28;20193;-68
2023/09/08 11:45:03;;;;;;;4.88;4.47;;;22.70;97.40;;;;;;4967153;28;20268;-68
2023/09/08 11:47:31;;;;;;;5.60;4.90;;;22.80;97.50;;;;;;4967024;28;20189;-68
2023/09/08 11:49:57;;;;;;;5.53;5.10;;;22.70;97.60;;;;;;4966828;28;20188;-68
2023/09/08 11:52:24;;;;;;;5.30;4.80;;;22.70;97.70;;;;;;4969384;28;20223;-68
2023/09/08 11:54:51;;;;;;;5.35;4.95;;;22.70;97.70;;;;;;4969999;28;20207;-68
2023/09/08 11:57:18;;;;;;;5.30;4.70;;;22.70;97.80;;;;;;4968772;28;20240;-68
2023/09/08 11:59:47;;;;;;;5.43;5.03;;;22.70;97.90;;;;;;4959079;28;20202;-68
2023/09/08 12:02:14;;;;;;;5.47;5.00;;;22.70;98.10;;;;;;4958819;28;20219;-68
2023/09/08 12:04:41;;;;;;;5.57;4.70;;;22.70;97.80;;;;;;4963001;28;20209;-68
2023/09/08 12:07:16;;;;;;;5.38;4.88;;;22.80;98.30;;;;;;4961509;28;20196;-68
2023/09/08 12:09:42;;;;;;;9.20;5.28;;;22.90;98.10;;;;;;4963068;28;20180;-68
2023/09/08 12:12:12;;;;;;;6.18;4.82;;;22.90;98.10;;;;;;4953683;28;20220;-70
2023/09/08 12:14:42;;;;;;;4.70;4.30;;;22.80;98.20;;;;;;4962170;28;20316;-68
2023/09/08 12:17:08;;;;;;;6.97;6.18;;;22.80;98.40;;;;;;4961557;28;20208;-68
2023/09/08 12:19:36;;;;;;;5.47;5.00;;;22.80;98.30;;;;;;4958762;28;20182;-68
2023/09/08 12:22:05;;;;;;;6.47;5.88;;;22.80;98.90;;;;;;4949164;28;20192;-68
2023/09/08 12:25:09;;;;;;;6.10;5.40;;;22.80;98.50;;;;;;4957106;28;20215;-68
2023/09/08 12:27:37;;;;;;;6.70;5.38;;;22.80;98.50;;;;;;4865688;29;20291;-68
2023/09/08 12:30:08;;;;;;;6.00;5.43;;;22.80;98.70;;;;;;4866603;29;20346;-68
2023/09/08 12:32:34;;;;;;;5.88;5.38;;;22.80;98.70;;;;;;4914747;28;20236;-68
2023/09/08 12:35:03;;;;;;;5.03;4.63;;;22.80;99.20;;;;;;4969219;28;20215;-69
2023/09/08 12:37:30;;;;;;;6.00;5.13;;;22.80;98.90;;;;;;4951055;28;20193;-67
2023/09/08 12:39:56;;;;;;;6.15;5.50;;;22.80;98.90;;;;;;4948381;28;20181;-68
2023/09/08 12:42:25;;;;;;;6.30;5.20;;;22.80;98.90;;;;;;4967535;28;20184;-68
2023/09/08 12:44:51;;;;;;;9.43;5.38;;;22.80;99.30;;;;;;4957718;28;20205;-69
2023/09/08 12:47:17;;;;;;;5.50;5.00;;;22.80;99.10;;;;;;4957574;28;20276;-68
2023/09/08 12:49:43;;;;;;;5.35;4.60;;;22.80;98.90;;;;;;4969968;28;20204;-68
2023/09/08 12:52:09;;;;;;;6.57;5.35;;;22.80;98.90;;;;;;4944975;28;20213;-68